Terminal Aerodrome Forecast
Issued by NWS Sioux Falls, SD

Home | Current Version | Previous Version | Graphics & Text | Print | Product List | Glossary Off
Versions: 1 2 3 4 5 6 7 8 9 10 11 12 13 14 15 16 17 18 19 20 21 22 23

000
FTUS43 KFSD 251120
TAFSUX
TAF
KSUX 251120Z 2512/2612 14007KT P6SM BKN140
     FM252200 06009KT P6SM SCT020 BKN120
     FM260300 03012KT P6SM OVC015
     FM261000 36014KT P6SM OVC012=

USA.gov is the U.S. government's official web portal to all federal, state and local government web resources and services.